createdAt,value
2022-09-11T00:00:59.932Z,101171.69
2022-09-11T00:03:27.964Z,101176.16
2022-09-11T00:05:54.312Z,101179.47
2022-09-11T00:08:21.724Z,101178.41
2022-09-11T00:10:48.851Z,101181.94
2022-09-11T00:13:21.073Z,101179.31
2022-09-11T00:15:50.276Z,101186.50
2022-09-11T00:18:21.492Z,101185.41
2022-09-11T00:20:53.104Z,101187.13
2022-09-11T00:23:20.863Z,101186.34
2022-09-11T00:25:48.298Z,101185.59
2022-09-11T00:28:17.133Z,101191.91
2022-09-11T00:30:46.799Z,101191.81
2022-09-11T00:33:15.470Z,101191.72
2022-09-11T00:35:42.680Z,101190.06
2022-09-11T00:38:09.161Z,101186.34
2022-09-11T00:40:48.368Z,101197.53
2022-09-11T00:43:16.490Z,101197.50
2022-09-11T00:45:44.558Z,101195.69
2022-09-11T00:48:14.959Z,101197.38
2022-09-11T00:50:43.587Z,101197.06
2022-09-11T00:53:13.604Z,101198.06
2022-09-11T00:55:47.603Z,101194.59
2022-09-11T00:58:18.665Z,101200.63
2022-09-11T01:00:45.723Z,101201.44
2022-09-11T01:03:12.461Z,101204.69
2022-09-11T01:05:41.233Z,101201.06
2022-09-11T01:08:08.040Z,101200.03
2022-09-11T01:10:54.826Z,101194.25
2022-09-11T01:13:30.210Z,101202.16
2022-09-11T01:16:42.841Z,101200.19
2022-09-11T01:19:43.533Z,101207.28
2022-09-11T01:22:45.907Z,101200.38
2022-09-11T01:25:27.295Z,101201.34
2022-09-11T01:27:56.646Z,101206.84
2022-09-11T01:30:40.750Z,101212.06
2022-09-11T01:33:28.171Z,101215.00
2022-09-11T01:36:05.968Z,101212.13
2022-09-11T01:38:54.532Z,101211.16
2022-09-11T01:41:31.713Z,101213.69
2022-09-11T01:44:07.083Z,101216.16
2022-09-11T01:46:40.892Z,101214.53
2022-09-11T01:49:23.068Z,101216.16
2022-09-11T01:51:55.831Z,101223.97
2022-09-11T01:54:28.440Z,101227.41
2022-09-11T01:57:02.323Z,101227.19
2022-09-11T01:59:39.113Z,101226.28
2022-09-11T02:02:09.359Z,101216.16
2022-09-11T02:04:41.206Z,101223.13
2022-09-11T02:07:15.980Z,101216.88
2022-09-11T02:09:51.142Z,101226.44
2022-09-11T02:12:20.805Z,101222.34
2022-09-11T02:14:50.282Z,101229.59
2022-09-11T02:17:32.305Z,101230.19
2022-09-11T02:20:00.555Z,101231.03
2022-09-11T02:22:27.432Z,101228.44
2022-09-11T02:24:54.937Z,101228.28
2022-09-11T02:27:25.682Z,101229.31
2022-09-11T02:29:53.764Z,101235.28
2022-09-11T02:32:22.089Z,101231.22
2022-09-11T02:34:50.250Z,101233.09
2022-09-11T02:38:01.879Z,101243.63
2022-09-11T02:40:43.892Z,101249.84
2022-09-11T02:43:26.143Z,101254.13
2022-09-11T02:46:14.057Z,101253.31
2022-09-11T02:49:00.081Z,101252.50
2022-09-11T02:51:32.940Z,101264.88
2022-09-11T02:54:41.132Z,101274.47
2022-09-11T02:57:20.471Z,101257.63
2022-09-11T03:00:08.614Z,101273.59
2022-09-11T03:02:39.460Z,101274.75
2022-09-11T03:05:06.980Z,101281.81
2022-09-11T03:07:34.093Z,101274.53
2022-09-11T03:10:00.444Z,101273.75
2022-09-11T03:12:29.778Z,101265.25
2022-09-11T03:14:57.373Z,101277.28
2022-09-11T03:17:25.214Z,101271.13
2022-09-11T03:19:51.602Z,101278.91
2022-09-11T03:22:17.872Z,101278.06
2022-09-11T03:24:44.963Z,101274.50
2022-09-11T03:27:11.283Z,101277.13
2022-09-11T03:29:37.684Z,101280.75
2022-09-11T03:32:04.426Z,101283.63
2022-09-11T03:34:31.628Z,101284.28
2022-09-11T03:36:57.942Z,101281.75
2022-09-11T03:39:24.383Z,101288.03
2022-09-11T03:41:51.330Z,101282.75
2022-09-11T03:44:17.658Z,101281.88
2022-09-11T03:46:43.949Z,101289.84
2022-09-11T03:49:10.358Z,101279.25
2022-09-11T03:51:37.796Z,101288.88
2022-09-11T03:54:04.298Z,101280.03
2022-09-11T03:56:30.623Z,101277.28
2022-09-11T03:58:59.963Z,101275.59
2022-09-11T04:01:26.480Z,101279.91
2022-09-11T04:03:53.140Z,101282.38
2022-09-11T04:06:20.232Z,101278.34
2022-09-11T04:08:46.579Z,101274.66
2022-09-11T04:11:14.057Z,101280.03
2022-09-11T04:13:42.053Z,101276.44
2022-09-11T04:16:12.594Z,101282.66
2022-09-11T04:18:40.128Z,101288.09
2022-09-11T04:21:09.205Z,101290.13
2022-09-11T04:23:35.647Z,101295.34
2022-09-11T04:26:02.679Z,101297.31
2022-09-11T04:28:30.627Z,101299.63
2022-09-11T04:31:02.830Z,101305.69
2022-09-11T04:33:29.267Z,101299.41
2022-09-11T04:35:55.637Z,101303.69
2022-09-11T04:38:23.822Z,101303.75
2022-09-11T04:40:50.224Z,101295.88
2022-09-11T04:43:17.665Z,101299.13
2022-09-11T04:45:44.062Z,101300.94
2022-09-11T04:48:10.578Z,101302.66
2022-09-11T04:50:36.871Z,101310.38
2022-09-11T04:53:03.990Z,101307.75
2022-09-11T04:55:30.265Z,101311.88
2022-09-11T04:57:56.954Z,101311.69
2022-09-11T05:00:24.913Z,101318.56
2022-09-11T05:02:51.214Z,101321.50
2022-09-11T05:05:17.796Z,101325.78
2022-09-11T05:07:44.130Z,101324.38
2022-09-11T05:10:10.936Z,101332.84
2022-09-11T05:12:37.329Z,101327.28
2022-09-11T05:15:04.162Z,101335.22
2022-09-11T05:17:30.440Z,101336.22
2022-09-11T05:19:56.853Z,101330.16
2022-09-11T05:22:23.152Z,101329.13
2022-09-11T05:24:49.437Z,101334.16
2022-09-11T05:27:15.739Z,101333.16
2022-09-11T05:29:42.015Z,101328.53
2022-09-11T05:32:08.322Z,101334.69
2022-09-11T05:34:34.630Z,101336.41
2022-09-11T05:37:02.143Z,101335.38
2022-09-11T05:39:28.649Z,101350.22
2022-09-11T05:41:57.618Z,101353.53
2022-09-11T05:44:23.992Z,101352.69
2022-09-11T05:46:50.654Z,101349.91
2022-09-11T05:49:17.412Z,101351.47
2022-09-11T05:51:43.755Z,101353.16
2022-09-11T05:54:10.107Z,101358.34
2022-09-11T05:56:36.614Z,101357.53
2022-09-11T05:59:03.158Z,101360.09
2022-09-11T06:01:30.880Z,101358.31
2022-09-11T06:03:57.845Z,101362.56
2022-09-11T06:06:24.637Z,101361.91
2022-09-11T06:08:52.717Z,101365.59
2022-09-11T06:11:20.738Z,101371.97
2022-09-11T06:13:47.700Z,101385.88
2022-09-11T06:16:19.566Z,101376.22
2022-09-11T06:18:48.938Z,101376.25
2022-09-11T06:21:19.856Z,101372.16
2022-09-11T06:23:47.790Z,101383.25
2022-09-11T06:26:16.155Z,101379.97
2022-09-11T06:28:42.572Z,101377.69
2022-09-11T06:31:16.241Z,101376.47
2022-09-11T06:33:43.122Z,101385.97
2022-09-11T06:36:15.110Z,101383.13
2022-09-11T06:38:41.639Z,101390.41
2022-09-11T06:41:11.737Z,101394.53
2022-09-11T06:43:38.530Z,101399.66
2022-09-11T06:46:16.239Z,101398.84
2022-09-11T06:48:44.665Z,101388.22
2022-09-11T06:51:15.976Z,101405.56
2022-09-11T06:53:43.638Z,101404.09
2022-09-11T06:56:12.929Z,101396.91
2022-09-11T06:58:39.968Z,101401.38
2022-09-11T07:01:11.099Z,101396.06
2022-09-11T07:03:37.484Z,101397.84
2022-09-11T07:06:05.760Z,101398.63
2022-09-11T07:08:32.097Z,101397.81
2022-09-11T07:11:05.610Z,101398.13
2022-09-11T07:13:37.206Z,101397.13
2022-09-11T07:16:07.595Z,101400.47
2022-09-11T07:18:39.901Z,101400.16
2022-09-11T07:21:08.300Z,101403.81
2022-09-11T07:23:35.254Z,101398.69
2022-09-11T07:26:03.778Z,101403.72
2022-09-11T07:28:30.098Z,101407.53
2022-09-11T07:31:10.617Z,101414.59
2022-09-11T07:33:48.652Z,101410.41
2022-09-11T07:36:17.616Z,101409.78
2022-09-11T07:38:46.905Z,101409.19
2022-09-11T07:41:15.096Z,101413.97
2022-09-11T07:43:42.097Z,101415.91
2022-09-11T07:46:10.192Z,101413.66
2022-09-11T07:48:36.710Z,101408.41
2022-09-11T07:51:05.334Z,101421.44
2022-09-11T07:53:34.400Z,101412.72
2022-09-11T07:56:05.796Z,101421.16
2022-09-11T07:58:38.019Z,101417.88
2022-09-11T08:01:05.827Z,101423.28
2022-09-11T08:03:34.182Z,101428.13
2022-09-11T08:06:02.039Z,101426.00
2022-09-11T08:08:29.465Z,101433.78
2022-09-11T08:10:57.123Z,101433.66
2022-09-11T08:13:24.996Z,101438.91
2022-09-11T08:15:51.368Z,101444.34
2022-09-11T08:18:17.671Z,101444.50
2022-09-11T08:20:44.472Z,101442.72
2022-09-11T08:23:12.352Z,101449.41
2022-09-11T08:25:38.851Z,101450.31
2022-09-11T08:28:05.875Z,101453.00
2022-09-11T08:30:33.341Z,101453.31
2022-09-11T08:33:00.434Z,101454.19
2022-09-11T08:35:27.068Z,101446.38
2022-09-11T08:37:55.405Z,101450.56
2022-09-11T08:40:22.144Z,101452.97
2022-09-11T08:42:48.654Z,101453.28
2022-09-11T08:45:21.462Z,101449.25
2022-09-11T08:47:55.708Z,101453.13
2022-09-11T08:50:29.671Z,101442.19
2022-09-11T08:52:56.480Z,101452.63
2022-09-11T08:55:32.598Z,101444.31
2022-09-11T08:58:07.607Z,101451.00
2022-09-11T09:01:16.144Z,101448.31
2022-09-11T09:04:17.882Z,101460.59
2022-09-11T09:07:08.215Z,101453.38
2022-09-11T09:09:46.331Z,101449.38
2022-09-11T09:12:29.757Z,101444.19
2022-09-11T09:15:25.203Z,101443.31
2022-09-11T09:18:37.159Z,101442.25
2022-09-11T09:21:15.804Z,101441.13
2022-09-11T09:23:49.635Z,101435.28
2022-09-11T09:26:18.713Z,101435.72
2022-09-11T09:28:50.744Z,101435.50
2022-09-11T09:31:22.585Z,101432.47
2022-09-11T09:34:02.153Z,101437.81
2022-09-11T09:36:47.782Z,101428.09
2022-09-11T09:39:16.199Z,101418.81
2022-09-11T09:42:20.736Z,101421.34
2022-09-11T09:45:11.873Z,101418.44
2022-09-11T09:47:44.387Z,101420.78
2022-09-11T09:50:31.988Z,101423.81
2022-09-11T09:53:35.935Z,101420.03
2022-09-11T09:56:05.146Z,101424.56
2022-09-11T09:58:43.074Z,101424.03
2022-09-11T10:01:45.500Z,101428.97
2022-09-11T10:04:17.721Z,101425.72
2022-09-11T10:06:50.277Z,101428.53
2022-09-11T10:09:19.328Z,101424.78
2022-09-11T10:11:50.446Z,101426.53
2022-09-11T10:14:49.314Z,101418.22
2022-09-11T10:17:20.054Z,101421.72
2022-09-11T10:19:46.557Z,101425.22
2022-09-11T10:22:28.260Z,101427.19
2022-09-11T10:25:01.727Z,101426.84
2022-09-11T10:27:30.222Z,101426.06
2022-09-11T10:29:58.846Z,101431.28
2022-09-11T10:32:26.270Z,101433.81
2022-09-11T10:34:53.290Z,101434.88
2022-09-11T10:37:31.096Z,101430.25
2022-09-11T10:40:22.627Z,101436.88
2022-09-11T10:42:51.326Z,101437.72
2022-09-11T10:45:21.636Z,101433.50
2022-09-11T10:47:48.428Z,101429.81
2022-09-11T10:50:17.775Z,101430.53
2022-09-11T10:53:00.895Z,101430.03
2022-09-11T10:55:34.039Z,101425.41
2022-09-11T10:58:16.076Z,101422.06
2022-09-11T11:00:42.476Z,101426.91
2022-09-11T11:03:17.474Z,101427.56
2022-09-11T11:05:47.774Z,101426.59
2022-09-11T11:08:21.087Z,101426.00
2022-09-11T11:11:05.885Z,101429.16
2022-09-11T11:13:56.558Z,101425.50
2022-09-11T11:16:46.920Z,101435.72
2022-09-11T11:19:34.804Z,101428.41
2022-09-11T11:22:38.128Z,101429.25
2022-09-11T11:25:27.256Z,101426.41
2022-09-11T11:28:11.877Z,101425.16
2022-09-11T11:31:15.691Z,101417.94
2022-09-11T11:33:51.712Z,101427.53
2022-09-11T11:37:03.379Z,101426.78
2022-09-11T11:39:44.752Z,101432.75
2022-09-11T11:42:23.591Z,101437.44
2022-09-11T11:44:58.624Z,101431.28
2022-09-11T11:47:32.531Z,101444.00
2022-09-11T11:50:22.061Z,101437.78
2022-09-11T11:53:12.315Z,101433.09
2022-09-11T11:55:45.480Z,101438.03
2022-09-11T11:58:29.170Z,101444.97
2022-09-11T12:01:01.845Z,101445.66
2022-09-11T12:03:36.347Z,101446.22
2022-09-11T12:06:05.368Z,101448.22
2022-09-11T12:08:31.943Z,101442.44
2022-09-11T12:11:03.888Z,101452.59
2022-09-11T12:13:34.222Z,101452.88
2022-09-11T12:16:15.029Z,101454.88
2022-09-11T12:19:13.894Z,101453.00
2022-09-11T12:21:42.383Z,101443.38
2022-09-11T12:24:08.641Z,101457.38
2022-09-11T12:26:35.113Z,101452.84
2022-09-11T12:29:11.665Z,101453.94
2022-09-11T12:31:50.187Z,101452.03
2022-09-11T12:34:24.835Z,101455.78
2022-09-11T12:37:11.119Z,101458.47
2022-09-11T12:39:40.001Z,101461.16
2022-09-11T12:42:25.273Z,101459.44
2022-09-11T12:44:51.565Z,101457.00
2022-09-11T12:47:35.020Z,101457.66
2022-09-11T12:50:04.436Z,101461.56
2022-09-11T12:53:02.045Z,101462.91
2022-09-11T12:55:43.192Z,101457.66
2022-09-11T12:58:21.502Z,101458.44
2022-09-11T13:00:50.654Z,101459.53
2022-09-11T13:03:24.487Z,101455.00
2022-09-11T13:06:02.069Z,101453.47
2022-09-11T13:08:33.234Z,101452.19
2022-09-11T13:11:36.566Z,101446.75
2022-09-11T13:14:05.095Z,101448.09
2022-09-11T13:16:34.773Z,101438.28
2022-09-11T13:19:13.577Z,101436.09
2022-09-11T13:21:49.308Z,101425.19
2022-09-11T13:24:30.117Z,101427.59
2022-09-11T13:27:17.491Z,101419.34
2022-09-11T13:29:47.425Z,101429.31
2022-09-11T13:32:15.606Z,101429.09
2022-09-11T13:34:48.311Z,101430.19
2022-09-11T13:37:26.409Z,101421.28
2022-09-11T13:39:53.135Z,101422.03
2022-09-11T13:42:23.122Z,101423.81
2022-09-11T13:44:52.032Z,101427.66
2022-09-11T13:47:21.286Z,101423.59
2022-09-11T13:49:51.007Z,101422.06
2022-09-11T13:52:21.867Z,101426.97
2022-09-11T13:54:54.124Z,101420.09
2022-09-11T13:57:28.139Z,101426.94
2022-09-11T13:59:59.071Z,101425.69
2022-09-11T14:02:34.521Z,101425.66
2022-09-11T14:05:22.064Z,101436.31
2022-09-11T14:08:10.104Z,101430.56
2022-09-11T14:10:42.395Z,101423.19
2022-09-11T14:13:30.057Z,101409.16
2022-09-11T14:16:01.704Z,101406.81
2022-09-11T14:18:37.165Z,101423.59
2022-09-11T14:21:13.355Z,101418.25
2022-09-11T14:23:43.394Z,101420.19
2022-09-11T14:26:24.792Z,101419.47
2022-09-11T14:28:58.204Z,101413.00
2022-09-11T14:31:35.361Z,101413.28
2022-09-11T14:34:10.972Z,101412.91
2022-09-11T14:36:41.580Z,101407.75
2022-09-11T14:39:29.453Z,101410.22
2022-09-11T14:41:57.943Z,101415.03
2022-09-11T14:44:26.143Z,101412.28
2022-09-11T14:46:53.361Z,101413.75
2022-09-11T14:49:19.660Z,101406.16
2022-09-11T14:52:00.398Z,101410.13
2022-09-11T14:54:30.958Z,101409.63
2022-09-11T14:57:00.811Z,101411.38
2022-09-11T14:59:29.031Z,101404.78
2022-09-11T15:01:58.340Z,101400.84
2022-09-11T15:04:24.728Z,101407.28
2022-09-11T15:06:55.530Z,101401.63
2022-09-11T15:09:25.185Z,101400.97
2022-09-11T15:11:52.245Z,101400.59
2022-09-11T15:14:32.570Z,101400.09
2022-09-11T15:17:13.008Z,101406.75
2022-09-11T15:19:39.386Z,101402.53
2022-09-11T15:22:07.368Z,101411.56
2022-09-11T15:24:34.556Z,101410.34
2022-09-11T15:27:01.151Z,101405.84
2022-09-11T15:29:31.559Z,101406.72
2022-09-11T15:31:58.511Z,101402.78
2022-09-11T15:34:27.132Z,101405.69
2022-09-11T15:36:53.626Z,101405.44
2022-09-11T15:39:20.913Z,101401.94
2022-09-11T15:41:47.713Z,101399.25
2022-09-11T15:44:20.286Z,101400.34
2022-09-11T15:46:47.587Z,101398.97
2022-09-11T15:49:13.904Z,101406.59
2022-09-11T15:51:40.331Z,101403.22
2022-09-11T15:54:06.701Z,101398.13
2022-09-11T15:56:35.322Z,101401.75
2022-09-11T15:59:02.083Z,101403.41
2022-09-11T16:01:32.314Z,101405.75
2022-09-11T16:04:07.318Z,101406.72
2022-09-11T16:06:39.363Z,101409.44
2022-09-11T16:09:10.555Z,101397.78
2022-09-11T16:11:39.743Z,101402.19
2022-09-11T16:14:06.903Z,101398.63
2022-09-11T16:16:33.708Z,101402.13
2022-09-11T16:19:01.575Z,101403.59
2022-09-11T16:21:28.536Z,101402.19
2022-09-11T16:24:00.664Z,101402.06
2022-09-11T16:26:28.899Z,101411.75
2022-09-11T16:28:55.238Z,101405.63
2022-09-11T16:31:21.659Z,101404.22
2022-09-11T16:33:48.550Z,101401.50
2022-09-11T16:36:17.978Z,101403.28
2022-09-11T16:38:45.197Z,101395.19
2022-09-11T16:41:18.718Z,101387.44
2022-09-11T16:43:47.733Z,101382.28
2022-09-11T16:46:19.925Z,101386.69
2022-09-11T16:48:51.854Z,101392.09
2022-09-11T16:51:20.875Z,101386.72
2022-09-11T16:53:47.618Z,101391.56
2022-09-11T16:56:16.693Z,101391.34
2022-09-11T16:58:43.780Z,101391.09
2022-09-11T17:01:15.803Z,101388.34
2022-09-11T17:03:44.218Z,101387.53
2022-09-11T17:06:11.199Z,101391.88
2022-09-11T17:08:39.062Z,101388.50
2022-09-11T17:11:09.547Z,101386.06
2022-09-11T17:13:36.372Z,101387.41
2022-09-11T17:16:05.037Z,101394.09
2022-09-11T17:18:31.980Z,101387.50
2022-09-11T17:21:02.415Z,101388.53
2022-09-11T17:23:28.734Z,101390.31
2022-09-11T17:25:55.016Z,101383.59
2022-09-11T17:28:21.560Z,101395.44
2022-09-11T17:30:48.023Z,101384.03
2022-09-11T17:33:15.509Z,101391.84
2022-09-11T17:35:43.724Z,101388.41
2022-09-11T17:38:11.056Z,101388.47
2022-09-11T17:40:38.832Z,101396.81
2022-09-11T17:43:05.113Z,101392.66
2022-09-11T17:45:31.572Z,101396.47
2022-09-11T17:47:57.993Z,101400.06
2022-09-11T17:50:24.385Z,101400.50
2022-09-11T17:52:50.677Z,101402.91
2022-09-11T17:55:17.101Z,101410.00
2022-09-11T17:57:45.884Z,101402.34
2022-09-11T18:00:13.089Z,101404.09
2022-09-11T18:02:39.983Z,101408.53
2022-09-11T18:05:07.026Z,101410.75
2022-09-11T18:07:33.377Z,101407.41
2022-09-11T18:09:59.844Z,101412.03
2022-09-11T18:12:28.349Z,101412.63
2022-09-11T18:14:56.809Z,101410.19
2022-09-11T18:17:23.094Z,101414.81
2022-09-11T18:19:50.043Z,101413.25
2022-09-11T18:22:19.851Z,101418.47
2022-09-11T18:24:46.319Z,101426.50
2022-09-11T18:27:12.628Z,101422.06
2022-09-11T18:29:40.501Z,101425.78
2022-09-11T18:32:06.867Z,101429.66
2022-09-11T18:34:33.290Z,101435.09
2022-09-11T18:37:00.446Z,101426.44
2022-09-11T18:39:26.985Z,101435.47
2022-09-11T18:41:53.387Z,101440.03
2022-09-11T18:44:22.237Z,101438.56
2022-09-11T18:46:51.742Z,101438.53
2022-09-11T18:49:18.430Z,101448.44
2022-09-11T18:51:44.794Z,101453.84
2022-09-11T18:54:16.190Z,101446.28
2022-09-11T18:56:43.518Z,101452.94
2022-09-11T18:59:10.779Z,101456.19
2022-09-11T19:01:37.286Z,101456.19
2022-09-11T19:04:08.505Z,101456.16
2022-09-11T19:06:35.030Z,101453.03
2022-09-11T19:09:02.644Z,101458.84
2022-09-11T19:11:29.908Z,101448.56
2022-09-11T19:14:02.352Z,101460.84
2022-09-11T19:16:29.200Z,101457.09
2022-09-11T19:18:55.554Z,101460.66
2022-09-11T19:21:23.814Z,101457.16
2022-09-11T19:23:55.304Z,101461.63
2022-09-11T19:26:27.107Z,101460.19
2022-09-11T19:28:55.767Z,101470.03
2022-09-11T19:31:28.810Z,101467.47
2022-09-11T19:33:56.614Z,101465.75
2022-09-11T19:36:27.236Z,101474.41
2022-09-11T19:39:00.598Z,101475.06
2022-09-11T19:41:32.801Z,101475.78
2022-09-11T19:44:01.488Z,101471.47
2022-09-11T19:46:29.502Z,101478.28
2022-09-11T19:48:58.024Z,101476.56
2022-09-11T19:51:27.510Z,101475.78
2022-09-11T19:54:00.378Z,101473.16
2022-09-11T19:56:27.648Z,101473.16
2022-09-11T19:58:54.622Z,101476.03
2022-09-11T20:01:22.892Z,101478.69
2022-09-11T20:03:50.984Z,101486.56
2022-09-11T20:06:18.984Z,101479.94
2022-09-11T20:08:47.022Z,101479.81
2022-09-11T20:11:16.771Z,101486.13
2022-09-11T20:13:43.288Z,101487.84
2022-09-11T20:16:19.910Z,101485.34
2022-09-11T20:18:46.306Z,101489.72
2022-09-11T20:21:18.311Z,101483.88
2022-09-11T20:23:45.282Z,101488.56
2022-09-11T20:26:16.951Z,101488.78
2022-09-11T20:28:45.105Z,101488.00
2022-09-11T20:31:22.953Z,101490.69
2022-09-11T20:33:49.503Z,101489.78
2022-09-11T20:36:17.217Z,101491.50
2022-09-11T20:38:43.861Z,101484.63
2022-09-11T20:41:14.218Z,101487.41
2022-09-11T20:43:41.447Z,101498.06
2022-09-11T20:46:09.039Z,101494.53
2022-09-11T20:48:35.436Z,101497.09
2022-09-11T20:51:07.098Z,101492.03
2022-09-11T20:53:33.603Z,101494.66
2022-09-11T20:56:05.840Z,101488.84
2022-09-11T20:58:32.648Z,101487.19
2022-09-11T21:01:00.694Z,101489.13
2022-09-11T21:03:27.950Z,101488.34
2022-09-11T21:05:55.443Z,101479.56
2022-09-11T21:08:22.196Z,101485.94
2022-09-11T21:10:49.536Z,101483.69
2022-09-11T21:13:16.568Z,101476.38
2022-09-11T21:15:47.715Z,101486.00
2022-09-11T21:18:15.016Z,101484.50
2022-09-11T21:20:41.428Z,101486.25
2022-09-11T21:23:07.789Z,101482.84
2022-09-11T21:25:40.306Z,101476.97
2022-09-11T21:28:06.687Z,101481.28
2022-09-11T21:30:33.178Z,101478.63
2022-09-11T21:32:59.451Z,101476.75
2022-09-11T21:35:25.802Z,101479.41
2022-09-11T21:37:52.095Z,101476.16
2022-09-11T21:40:18.376Z,101474.44
2022-09-11T21:42:44.732Z,101470.41
2022-09-11T21:45:11.000Z,101474.78
2022-09-11T21:47:37.341Z,101474.75
2022-09-11T21:50:06.926Z,101474.88
2022-09-11T21:52:33.705Z,101475.63
2022-09-11T21:55:00.349Z,101474.16
2022-09-11T21:57:28.744Z,101467.31
2022-09-11T21:59:58.900Z,101465.44
2022-09-11T22:02:26.557Z,101463.66
2022-09-11T22:04:53.257Z,101460.13
2022-09-11T22:07:20.183Z,101464.41
2022-09-11T22:09:50.302Z,101470.53
2022-09-11T22:12:16.845Z,101469.09
2022-09-11T22:14:46.629Z,101467.31
2022-09-11T22:17:12.938Z,101462.91
2022-09-11T22:19:39.221Z,101462.06
2022-09-11T22:22:06.638Z,101463.09
2022-09-11T22:24:33.002Z,101458.72
2022-09-11T22:26:59.341Z,101464.13
2022-09-11T22:29:25.714Z,101466.81
2022-09-11T22:31:52.054Z,101464.34
2022-09-11T22:34:18.393Z,101459.94
2022-09-11T22:36:44.681Z,101462.50
2022-09-11T22:39:10.961Z,101460.66
2022-09-11T22:41:37.260Z,101462.47
2022-09-11T22:44:03.881Z,101455.44
2022-09-11T22:46:30.176Z,101457.19
2022-09-11T22:48:56.496Z,101452.78
2022-09-11T22:51:22.785Z,101454.56
2022-09-11T22:53:49.148Z,101458.16
2022-09-11T22:56:15.548Z,101456.34
2022-09-11T22:58:42.112Z,101454.56
2022-09-11T23:01:10.523Z,101453.72
2022-09-11T23:03:37.192Z,101453.75
2022-09-11T23:06:22.706Z,101453.13
2022-09-11T23:08:49.330Z,101456.69
2022-09-11T23:11:19.628Z,101464.47
2022-09-11T23:13:49.770Z,101451.47
2022-09-11T23:16:22.743Z,101455.84
2022-09-11T23:18:55.897Z,101451.66
2022-09-11T23:21:22.410Z,101452.56
2022-09-11T23:23:54.687Z,101458.72
2022-09-11T23:26:23.034Z,101451.03
2022-09-11T23:28:49.409Z,101448.41
2022-09-11T23:31:28.567Z,101450.16
2022-09-11T23:33:57.745Z,101449.41
2022-09-11T23:36:24.616Z,101445.25
2022-09-11T23:38:51.132Z,101443.38
2022-09-11T23:41:18.171Z,101450.28
2022-09-11T23:43:44.874Z,101452.84
2022-09-11T23:46:11.711Z,101452.84
2022-09-11T23:48:38.464Z,101455.56
2022-09-11T23:51:05.441Z,101451.19
2022-09-11T23:53:32.071Z,101454.59
2022-09-11T23:55:58.812Z,101450.31
2022-09-11T23:58:25.184Z,101443.38
